createdAt,value
2019-06-26T00:00:43.725Z,99.90
2019-06-26T00:03:16.041Z,99.90
2019-06-26T00:05:45.063Z,99.90
2019-06-26T00:08:14.089Z,99.90
2019-06-26T00:10:45.920Z,99.90
2019-06-26T00:13:26.108Z,99.90
2019-06-26T00:15:48.742Z,99.90
2019-06-26T00:18:20.841Z,99.90
2019-06-26T00:20:49.806Z,99.90
2019-06-26T00:23:25.107Z,99.90
2019-06-26T00:26:03.382Z,99.90
2019-06-26T00:28:33.701Z,99.90
2019-06-26T00:31:02.549Z,99.90
2019-06-26T00:33:31.490Z,99.90
2019-06-26T00:36:00.561Z,99.90
2019-06-26T00:38:30.761Z,99.90
2019-06-26T00:40:59.689Z,99.90
2019-06-26T00:43:42.000Z,99.90
2019-06-26T00:45:59.874Z,99.90
2019-06-26T00:48:28.800Z,99.90
2019-06-26T00:51:00.548Z,99.90
2019-06-26T00:53:29.538Z,99.90
2019-06-26T00:55:58.525Z,99.90
2019-06-26T00:58:28.138Z,99.90
2019-06-26T01:00:59.857Z,99.90
2019-06-26T01:03:35.020Z,99.90
2019-06-26T01:06:05.115Z,99.90
2019-06-26T01:08:33.955Z,99.90
2019-06-26T01:11:04.248Z,99.90
2019-06-26T01:13:33.081Z,99.90
2019-06-26T01:16:02.370Z,99.90
2019-06-26T01:18:34.012Z,99.90
2019-06-26T01:21:05.928Z,99.90
2019-06-26T01:23:41.279Z,99.90
2019-06-26T01:26:13.257Z,99.90
2019-06-26T01:28:42.168Z,99.90
2019-06-26T01:31:14.092Z,99.90
2019-06-26T01:33:45.857Z,99.90
2019-06-26T01:36:18.173Z,99.90
2019-06-26T01:38:50.291Z,99.90
2019-06-26T01:41:22.081Z,99.90
2019-06-26T01:43:51.299Z,99.90
2019-06-26T01:46:20.312Z,99.90
2019-06-26T01:48:52.357Z,99.90
2019-06-26T01:51:21.935Z,99.90
2019-06-26T01:53:54.445Z,99.90
2019-06-26T01:56:23.328Z,99.90
2019-06-26T01:58:52.146Z,99.90
2019-06-26T02:01:21.305Z,99.90
2019-06-26T02:03:50.344Z,99.90
2019-06-26T02:06:19.563Z,99.90
2019-06-26T02:08:51.992Z,99.90
2019-06-26T02:11:20.983Z,99.90
2019-06-26T02:13:49.864Z,99.90
2019-06-26T02:16:20.591Z,99.90
2019-06-26T02:18:53.832Z,99.90
2019-06-26T02:21:24.204Z,99.90
2019-06-26T02:23:57.180Z,99.90
2019-06-26T02:26:26.323Z,99.90
2019-06-26T02:28:55.301Z,99.90
2019-06-26T02:31:24.221Z,99.90
2019-06-26T02:33:56.300Z,99.90
2019-06-26T02:36:25.267Z,99.90
2019-06-26T02:38:54.188Z,99.90
2019-06-26T02:41:23.151Z,99.90
2019-06-26T02:43:52.097Z,99.90
2019-06-26T02:46:21.433Z,99.90
2019-06-26T02:48:50.325Z,99.90
2019-06-26T02:51:21.001Z,99.90
2019-06-26T02:53:49.873Z,99.90
2019-06-26T02:56:19.154Z,99.90
2019-06-26T02:58:48.354Z,99.90
2019-06-26T03:01:21.705Z,99.90
2019-06-26T03:03:50.533Z,99.90
2019-06-26T03:06:22.546Z,99.90
2019-06-26T03:08:54.351Z,99.90
2019-06-26T03:11:29.426Z,99.90
2019-06-26T03:13:58.349Z,99.90
2019-06-26T03:16:27.353Z,99.90
2019-06-26T03:18:59.047Z,99.90
2019-06-26T03:21:28.005Z,99.90
2019-06-26T03:23:57.450Z,99.90
2019-06-26T03:26:29.813Z,99.90
2019-06-26T03:29:05.157Z,99.90
2019-06-26T03:31:34.760Z,99.90
2019-06-26T03:34:03.960Z,99.90
2019-06-26T03:36:36.032Z,99.90
2019-06-26T03:39:07.273Z,99.90
2019-06-26T03:41:36.163Z,99.90
2019-06-26T03:44:05.142Z,99.90
2019-06-26T03:46:34.282Z,99.90
2019-06-26T03:49:06.158Z,99.90
2019-06-26T03:51:35.532Z,99.90
2019-06-26T03:54:07.323Z,99.90
2019-06-26T03:56:39.062Z,99.90
2019-06-26T03:59:08.335Z,99.90
2019-06-26T04:01:37.212Z,99.90
2019-06-26T04:04:09.286Z,99.90
2019-06-26T04:06:41.274Z,99.90
2019-06-26T04:09:12.366Z,99.90
2019-06-26T04:11:44.070Z,99.90
2019-06-26T04:14:13.119Z,99.90
2019-06-26T04:16:44.175Z,99.90
2019-06-26T04:19:13.150Z,99.90
2019-06-26T04:21:42.224Z,99.90
2019-06-26T04:24:11.125Z,99.90
2019-06-26T04:26:45.453Z,99.90
2019-06-26T04:29:17.042Z,99.90
2019-06-26T04:31:46.251Z,99.90
2019-06-26T04:34:15.270Z,99.90
2019-06-26T04:36:44.204Z,99.90
2019-06-26T04:39:13.186Z,99.90
2019-06-26T04:41:49.394Z,99.90
2019-06-26T04:44:21.231Z,99.90
2019-06-26T04:46:50.120Z,99.90
2019-06-26T04:49:19.030Z,99.90
2019-06-26T04:51:51.402Z,99.90
2019-06-26T04:54:23.061Z,99.90
2019-06-26T04:56:55.040Z,99.90
2019-06-26T04:59:24.025Z,99.90
2019-06-26T05:01:52.989Z,99.90
2019-06-26T05:04:21.936Z,99.90
2019-06-26T05:06:50.899Z,99.90
2019-06-26T05:09:19.776Z,99.90
2019-06-26T05:11:48.807Z,99.90
2019-06-26T05:14:20.510Z,99.90
2019-06-26T05:16:49.445Z,99.90
2019-06-26T05:19:18.478Z,99.90
2019-06-26T05:21:50.742Z,99.90
2019-06-26T05:24:20.206Z,99.90
2019-06-26T05:26:55.347Z,99.90
2019-06-26T05:29:24.340Z,99.90
2019-06-26T05:31:56.041Z,99.90
2019-06-26T05:34:25.264Z,99.90
2019-06-26T05:36:54.225Z,99.90
2019-06-26T05:39:26.356Z,99.90
2019-06-26T05:41:57.486Z,99.90
2019-06-26T05:44:26.497Z,99.90
2019-06-26T05:46:55.537Z,99.90
2019-06-26T05:49:27.771Z,99.90
2019-06-26T05:52:02.099Z,99.90
2019-06-26T05:54:34.167Z,99.90
2019-06-26T05:57:06.131Z,99.90
2019-06-26T05:59:36.633Z,99.90
2019-06-26T06:02:05.954Z,99.90
2019-06-26T06:04:37.917Z,99.90
2019-06-26T06:07:07.328Z,99.90
2019-06-26T06:09:36.233Z,99.90
2019-06-26T06:12:05.244Z,99.90
2019-06-26T06:14:34.105Z,99.90
2019-06-26T06:17:02.948Z,99.90
2019-06-26T06:19:32.178Z,99.90
2019-06-26T06:22:01.387Z,99.90
2019-06-26T06:24:30.356Z,99.90
2019-06-26T06:27:02.325Z,99.90
2019-06-26T06:29:31.260Z,99.90
2019-06-26T06:32:00.511Z,99.90
2019-06-26T06:34:29.422Z,99.90
2019-06-26T06:36:59.116Z,99.90
2019-06-26T06:39:32.657Z,99.90
2019-06-26T06:42:02.061Z,99.90
2019-06-26T06:44:37.210Z,99.90
2019-06-26T06:47:10.646Z,99.90
2019-06-26T06:49:42.318Z,99.90
2019-06-26T06:52:11.519Z,99.90
2019-06-26T06:54:40.358Z,99.90
2019-06-26T06:57:09.195Z,99.90
2019-06-26T06:59:38.228Z,99.90
2019-06-26T07:02:12.198Z,99.90
2019-06-26T07:04:41.451Z,99.90
2019-06-26T07:07:10.697Z,99.90
2019-06-26T07:09:39.705Z,99.90
2019-06-26T07:12:08.680Z,99.90
2019-06-26T07:14:40.429Z,99.90
2019-06-26T07:17:20.950Z,99.90
2019-06-26T07:19:49.495Z,99.90
2019-06-26T07:22:24.796Z,99.90
2019-06-26T07:24:53.760Z,99.90
2019-06-26T07:27:22.745Z,99.90
2019-06-26T07:29:51.918Z,99.90
2019-06-26T07:32:21.018Z,99.90
2019-06-26T07:34:52.890Z,99.90
2019-06-26T07:37:21.801Z,99.90
2019-06-26T07:39:50.879Z,99.90
2019-06-26T07:42:20.214Z,99.90
2019-06-26T07:44:49.058Z,99.90
2019-06-26T07:47:22.955Z,99.90
2019-06-26T07:49:48.962Z,99.90
2019-06-26T07:52:19.703Z,99.90
2019-06-26T07:54:48.669Z,99.90
2019-06-26T07:57:20.909Z,99.90
2019-06-26T07:59:49.803Z,99.90
2019-06-26T08:02:18.728Z,99.90
2019-06-26T08:04:47.777Z,99.90
2019-06-26T08:07:19.571Z,99.90
2019-06-26T08:09:51.838Z,99.90
2019-06-26T08:12:20.745Z,99.90
2019-06-26T08:14:49.698Z,99.90
2019-06-26T08:17:21.833Z,99.90
2019-06-26T08:19:54.705Z,99.90
2019-06-26T08:22:24.032Z,99.90
2019-06-26T08:24:53.202Z,99.90
2019-06-26T08:27:22.149Z,99.90
2019-06-26T08:29:51.377Z,99.90
2019-06-26T08:32:20.537Z,99.90
2019-06-26T08:34:49.843Z,99.90
2019-06-26T08:37:18.857Z,99.90
2019-06-26T08:39:47.757Z,99.90
2019-06-26T08:42:16.984Z,99.90
2019-06-26T08:44:48.887Z,99.90
2019-06-26T08:47:20.905Z,99.90
2019-06-26T08:49:49.817Z,99.90
2019-06-26T08:52:18.843Z,99.90
2019-06-26T08:54:47.745Z,99.90
2019-06-26T08:57:17.549Z,99.90
2019-06-26T08:59:46.618Z,99.90
2019-06-26T09:02:15.517Z,99.90
2019-06-26T09:04:50.649Z,99.90
2019-06-26T09:07:22.875Z,99.90
2019-06-26T09:09:54.610Z,99.90
2019-06-26T09:12:32.756Z,99.90
2019-06-26T09:15:01.791Z,99.90
2019-06-26T09:17:30.908Z,99.90
2019-06-26T09:20:09.129Z,99.90
2019-06-26T09:22:38.112Z,99.90
2019-06-26T09:25:21.695Z,99.90
2019-06-26T09:27:41.561Z,99.90
2019-06-26T09:30:10.818Z,99.90
2019-06-26T09:32:39.771Z,99.90
2019-06-26T09:35:11.753Z,99.90
2019-06-26T09:37:40.751Z,99.90
2019-06-26T09:40:12.929Z,99.90
2019-06-26T09:42:41.834Z,99.90
2019-06-26T09:45:10.814Z,99.90
2019-06-26T09:47:40.197Z,99.90
2019-06-26T09:50:09.376Z,99.90
2019-06-26T09:52:41.224Z,99.90
2019-06-26T09:55:10.685Z,99.90
2019-06-26T09:57:39.912Z,99.90
2019-06-26T10:00:15.799Z,99.90
2019-06-26T10:02:47.969Z,99.90
2019-06-26T10:05:18.141Z,99.90
2019-06-26T10:07:51.733Z,99.90
2019-06-26T10:10:20.745Z,99.90
2019-06-26T10:12:52.500Z,99.90
2019-06-26T10:15:21.848Z,99.90
2019-06-26T10:17:50.832Z,99.90
2019-06-26T10:20:22.640Z,99.90
2019-06-26T10:22:54.673Z,99.90
2019-06-26T10:25:24.086Z,99.90
2019-06-26T10:27:53.054Z,99.90
2019-06-26T10:30:22.342Z,99.90
2019-06-26T10:32:51.289Z,99.90
2019-06-26T10:35:23.099Z,99.90
2019-06-26T10:37:52.107Z,99.90
2019-06-26T10:40:21.271Z,99.90
2019-06-26T10:42:50.146Z,99.90
2019-06-26T10:45:22.290Z,99.90
2019-06-26T10:47:51.466Z,99.90
2019-06-26T10:50:20.458Z,99.90
2019-06-26T10:52:49.374Z,99.90
2019-06-26T10:55:21.307Z,99.90
2019-06-26T10:57:54.129Z,99.90
2019-06-26T11:00:34.182Z,99.90
2019-06-26T11:03:18.503Z,99.90
2019-06-26T11:05:48.777Z,99.90
2019-06-26T11:08:20.766Z,99.90
2019-06-26T11:10:49.766Z,99.90
2019-06-26T11:13:18.667Z,99.90
2019-06-26T11:15:50.281Z,99.90
2019-06-26T11:18:19.392Z,99.90
2019-06-26T11:20:51.058Z,99.90
2019-06-26T11:23:19.901Z,99.90
2019-06-26T11:25:51.946Z,99.90
2019-06-26T11:28:24.015Z,99.90
2019-06-26T11:30:53.525Z,99.90
2019-06-26T11:33:50.952Z,99.90
2019-06-26T11:36:30.500Z,99.90
2019-06-26T11:39:29.832Z,99.90
2019-06-26T11:42:03.086Z,99.90
2019-06-26T11:44:32.428Z,99.90
2019-06-26T11:48:13.675Z,99.90
2019-06-26T11:50:42.670Z,99.90
2019-06-26T11:53:11.673Z,99.90
2019-06-26T11:55:41.002Z,99.90
2019-06-26T11:58:10.693Z,99.90
2019-06-26T12:00:41.709Z,99.90
2019-06-26T12:03:13.138Z,99.90
2019-06-26T12:05:40.886Z,99.30
2019-06-26T12:08:09.807Z,97.70
2019-06-26T12:10:39.029Z,97.00
2019-06-26T12:13:07.896Z,95.00
2019-06-26T12:15:36.828Z,92.80
2019-06-26T12:18:05.744Z,93.20
2019-06-26T12:20:34.682Z,91.20
2019-06-26T12:23:04.005Z,90.30
2019-06-26T12:25:35.754Z,90.30
2019-06-26T12:28:05.185Z,89.00
2019-06-26T12:30:34.020Z,87.10
2019-06-26T12:33:03.881Z,83.70
2019-06-26T12:35:33.000Z,85.20
2019-06-26T12:38:05.103Z,83.10
2019-06-26T12:40:34.025Z,81.40
2019-06-26T12:43:03.180Z,79.10
2019-06-26T12:45:32.405Z,78.50
2019-06-26T12:48:01.315Z,77.60
2019-06-26T12:50:35.869Z,78.00
2019-06-26T12:53:05.061Z,78.00
2019-06-26T12:55:36.789Z,78.00
2019-06-26T12:58:13.269Z,77.30
2019-06-26T13:00:39.826Z,76.00
2019-06-26T13:03:08.730Z,74.60
2019-06-26T13:05:37.556Z,74.10
2019-06-26T13:08:06.569Z,73.70
2019-06-26T13:10:48.913Z,77.30
2019-06-26T13:13:08.996Z,75.80
2019-06-26T13:15:42.114Z,78.10
2019-06-26T13:18:12.783Z,76.50
2019-06-26T13:20:52.106Z,76.70
2019-06-26T13:23:14.747Z,77.80
2019-06-26T13:25:43.065Z,77.90
2019-06-26T13:28:11.882Z,78.20
2019-06-26T13:30:41.119Z,77.60
2019-06-26T13:33:10.375Z,78.10
2019-06-26T13:35:39.568Z,76.60
2019-06-26T13:38:14.391Z,75.70
2019-06-26T13:40:43.378Z,75.60
2019-06-26T13:43:12.290Z,78.10
2019-06-26T13:45:41.230Z,74.50
2019-06-26T13:48:14.325Z,75.50
2019-06-26T13:50:40.694Z,74.00
2019-06-26T13:53:09.688Z,74.00
2019-06-26T13:55:41.579Z,75.00
2019-06-26T13:58:10.567Z,77.80
2019-06-26T14:00:40.745Z,76.90
2019-06-26T14:03:10.070Z,74.00
2019-06-26T14:05:39.077Z,75.50
2019-06-26T14:08:08.384Z,74.80
2019-06-26T14:10:37.414Z,74.80
2019-06-26T14:13:06.648Z,78.10
2019-06-26T14:15:37.930Z,77.80
2019-06-26T14:18:06.733Z,77.20
2019-06-26T14:20:40.220Z,75.20
2019-06-26T14:23:09.157Z,76.00
2019-06-26T14:25:38.165Z,74.50
2019-06-26T14:28:10.540Z,74.00
2019-06-26T14:45:00.303Z,78.70
2019-06-26T14:47:35.536Z,78.80
2019-06-26T15:05:55.352Z,80.60
2019-06-26T16:02:22.522Z,80.30
2019-06-26T16:05:26.176Z,80.30
2019-06-26T16:30:07.551Z,81.00
2019-06-26T16:45:22.864Z,83.30
2019-06-26T16:47:55.106Z,82.70
2019-06-26T16:50:40.337Z,84.00
2019-06-26T16:53:15.389Z,85.40
2019-06-26T16:55:54.834Z,85.60
2019-06-26T16:58:24.343Z,85.90
2019-06-26T17:00:59.362Z,86.00
2019-06-26T17:03:33.280Z,86.80
2019-06-26T17:06:03.997Z,85.80
2019-06-26T17:08:35.027Z,87.00
2019-06-26T17:11:04.601Z,87.00
2019-06-26T17:13:33.615Z,87.30
2019-06-26T17:18:56.543Z,88.70
2019-06-26T18:01:43.683Z,92.20
